createdAt,value
2023-01-10T00:00:57.156Z,204.40
2023-01-10T00:03:24.201Z,208.23
2023-01-10T00:05:51.250Z,212.83
2023-01-10T00:08:19.414Z,208.70
2023-01-10T00:10:48.128Z,215.87
2023-01-10T00:13:25.366Z,209.73
2023-01-10T00:15:55.873Z,218.47
2023-01-10T00:18:23.515Z,230.67
2023-01-10T00:20:50.654Z,220.50
2023-01-10T00:23:18.564Z,225.50
2023-01-10T00:25:46.659Z,221.70
2023-01-10T00:28:20.415Z,223.37
2023-01-10T00:30:55.183Z,218.50
2023-01-10T00:33:22.699Z,209.57
2023-01-10T00:35:49.777Z,217.83
2023-01-10T00:38:17.143Z,210.07
2023-01-10T00:40:45.564Z,206.63
2023-01-10T00:43:30.870Z,211.30
2023-01-10T00:45:58.113Z,206.80
2023-01-10T00:48:25.453Z,210.80
2023-01-10T00:50:52.584Z,214.67
2023-01-10T00:53:19.680Z,213.30
2023-01-10T00:55:47.268Z,217.93
2023-01-10T00:58:15.623Z,215.97
2023-01-10T01:00:46.933Z,215.60
2023-01-10T01:03:14.209Z,216.90
2023-01-10T01:05:46.160Z,219.97
2023-01-10T01:08:15.672Z,214.20
2023-01-10T01:10:42.759Z,221.53
2023-01-10T01:13:13.345Z,215.83
2023-01-10T01:15:40.686Z,210.20
2023-01-10T01:18:08.690Z,216.37
2023-01-10T01:20:35.732Z,215.87
2023-01-10T01:23:02.778Z,217.00
2023-01-10T01:25:29.806Z,211.90
2023-01-10T01:27:56.853Z,213.83
2023-01-10T01:30:24.156Z,212.57
2023-01-10T01:32:51.344Z,213.13
2023-01-10T01:35:18.680Z,217.77
2023-01-10T01:37:45.842Z,210.67
2023-01-10T01:40:19.519Z,216.53
2023-01-10T01:42:47.493Z,217.43
2023-01-10T01:45:14.688Z,222.73
2023-01-10T01:47:47.244Z,222.90
2023-01-10T01:50:51.625Z,222.87
2023-01-10T01:53:39.636Z,220.13
2023-01-10T01:56:17.283Z,219.23
2023-01-10T01:58:58.766Z,221.17
2023-01-10T02:01:28.173Z,216.20
2023-01-10T02:04:06.961Z,213.87
2023-01-10T02:06:34.135Z,214.63
2023-01-10T02:09:29.248Z,223.50
2023-01-10T02:11:56.912Z,215.83
2023-01-10T02:14:26.406Z,215.93
2023-01-10T02:16:53.648Z,221.60
2023-01-10T02:19:53.110Z,215.63
2023-01-10T02:23:08.155Z,212.77
2023-01-10T02:26:11.539Z,210.47
2023-01-10T02:29:08.887Z,211.13
2023-01-10T02:32:16.040Z,213.17
2023-01-10T02:35:14.884Z,210.47
2023-01-10T02:38:01.006Z,212.53
2023-01-10T02:41:03.094Z,207.97
2023-01-10T02:43:38.817Z,214.57
2023-01-10T02:46:18.669Z,212.90
2023-01-10T02:48:45.767Z,217.00
2023-01-10T02:51:29.253Z,212.23
2023-01-10T02:54:21.102Z,219.13
2023-01-10T02:57:02.761Z,209.83
2023-01-10T03:00:00.039Z,207.67
2023-01-10T03:03:01.262Z,214.30
2023-01-10T03:06:07.752Z,212.47
2023-01-10T03:08:50.052Z,211.60
2023-01-10T03:11:37.062Z,212.63
2023-01-10T03:14:05.809Z,212.67
2023-01-10T03:16:35.974Z,211.57
2023-01-10T03:19:14.154Z,207.33
2023-01-10T03:21:43.428Z,214.43
2023-01-10T03:24:19.419Z,214.53
2023-01-10T03:27:01.068Z,213.70
2023-01-10T03:29:44.435Z,219.83
2023-01-10T03:32:15.549Z,209.33
2023-01-10T03:34:42.753Z,209.43
2023-01-10T03:37:47.327Z,217.93
2023-01-10T03:40:55.234Z,215.53
2023-01-10T03:43:56.153Z,209.87
2023-01-10T03:46:48.953Z,214.13
2023-01-10T03:49:18.064Z,210.53
2023-01-10T03:51:45.662Z,213.37
2023-01-10T03:54:16.296Z,211.50
2023-01-10T03:56:51.153Z,210.37
2023-01-10T03:59:22.123Z,214.20
2023-01-10T04:01:49.199Z,210.90
2023-01-10T04:04:16.425Z,209.87
2023-01-10T04:06:43.493Z,212.33
2023-01-10T04:09:11.272Z,212.60
2023-01-10T04:11:38.481Z,213.40
2023-01-10T04:14:06.004Z,218.00
2023-01-10T04:16:33.182Z,208.37
2023-01-10T04:19:00.279Z,210.43
2023-01-10T04:21:27.323Z,211.97
2023-01-10T04:23:54.394Z,217.03
2023-01-10T04:26:21.425Z,210.30
2023-01-10T04:28:48.446Z,216.20
2023-01-10T04:31:15.535Z,217.80
2023-01-10T04:33:43.509Z,212.57
2023-01-10T04:36:10.677Z,214.77
2023-01-10T04:38:37.772Z,208.67
2023-01-10T04:41:05.093Z,218.40
2023-01-10T04:43:32.280Z,216.07
2023-01-10T04:45:59.614Z,208.63
2023-01-10T04:48:27.215Z,214.50
2023-01-10T04:50:54.771Z,211.40
2023-01-10T04:53:22.409Z,210.47
2023-01-10T04:55:49.542Z,211.80
2023-01-10T04:58:16.623Z,211.20
2023-01-10T05:00:43.646Z,208.40
2023-01-10T05:03:10.778Z,213.13
2023-01-10T05:05:37.820Z,210.67
2023-01-10T05:08:05.304Z,208.37
2023-01-10T05:10:32.373Z,215.17
2023-01-10T05:12:59.440Z,212.73
2023-01-10T05:15:26.546Z,206.37
2023-01-10T05:17:59.440Z,215.07
2023-01-10T05:20:26.674Z,204.63
2023-01-10T05:22:53.755Z,202.33
2023-01-10T05:25:20.799Z,213.77
2023-01-10T05:27:47.904Z,209.67
2023-01-10T05:30:15.248Z,213.07
2023-01-10T05:32:42.392Z,207.30
2023-01-10T05:35:16.141Z,206.67
2023-01-10T05:37:43.494Z,210.37
2023-01-10T05:40:11.559Z,209.47
2023-01-10T05:42:38.674Z,212.20
2023-01-10T05:45:06.471Z,206.03
2023-01-10T05:47:33.520Z,211.73
2023-01-10T05:50:00.567Z,210.33
2023-01-10T05:52:27.606Z,209.33
2023-01-10T05:54:54.664Z,206.83
2023-01-10T05:57:22.370Z,210.57
2023-01-10T05:59:49.455Z,204.93
2023-01-10T06:02:16.673Z,211.20
2023-01-10T06:04:43.817Z,208.63
2023-01-10T06:07:10.946Z,210.27
2023-01-10T06:09:38.003Z,214.00
2023-01-10T06:12:05.524Z,208.77
2023-01-10T06:14:32.558Z,211.70
2023-01-10T06:16:59.629Z,209.47
2023-01-10T06:19:26.671Z,213.73
2023-01-10T06:21:53.709Z,208.83
2023-01-10T06:24:20.744Z,212.07
2023-01-10T06:26:47.789Z,212.47
2023-01-10T06:29:14.901Z,204.27
2023-01-10T06:31:41.917Z,205.53
2023-01-10T06:34:08.980Z,217.13
2023-01-10T06:36:36.230Z,213.70
2023-01-10T06:39:03.480Z,210.17
2023-01-10T06:41:30.524Z,210.53
2023-01-10T06:43:57.536Z,215.13
2023-01-10T06:46:24.651Z,205.37
2023-01-10T06:48:51.761Z,208.03
2023-01-10T06:51:20.328Z,208.23
2023-01-10T06:53:47.541Z,211.90
2023-01-10T06:56:14.580Z,206.90
2023-01-10T06:58:41.658Z,209.40
2023-01-10T07:01:15.536Z,214.13
2023-01-10T07:03:42.954Z,217.57
2023-01-10T07:06:10.386Z,208.37
2023-01-10T07:08:39.923Z,215.67
2023-01-10T07:11:08.871Z,212.37
2023-01-10T07:13:36.506Z,207.87
2023-01-10T07:16:14.696Z,211.87
2023-01-10T07:18:43.242Z,208.93
2023-01-10T07:21:12.007Z,209.50
2023-01-10T07:23:39.533Z,216.17
2023-01-10T07:26:09.537Z,212.87
2023-01-10T07:28:37.128Z,206.17
2023-01-10T07:31:06.182Z,211.00
2023-01-10T07:33:33.709Z,205.80
2023-01-10T07:36:01.924Z,207.37
2023-01-10T07:38:29.848Z,204.37
2023-01-10T07:40:56.972Z,208.40
2023-01-10T07:43:24.072Z,209.60
2023-01-10T07:45:51.110Z,204.40
2023-01-10T07:48:18.185Z,203.03
2023-01-10T07:50:45.381Z,203.73
2023-01-10T07:53:12.394Z,208.07
2023-01-10T07:55:39.894Z,201.73
2023-01-10T07:58:10.697Z,199.30
2023-01-10T08:00:38.026Z,205.87
2023-01-10T08:03:06.408Z,199.00
2023-01-10T08:05:33.618Z,197.23
2023-01-10T08:08:09.598Z,207.83
2023-01-10T08:10:38.319Z,200.83
2023-01-10T08:13:17.829Z,199.00
2023-01-10T08:15:47.437Z,199.10
2023-01-10T08:18:14.821Z,202.83
2023-01-10T08:20:42.028Z,200.47
2023-01-10T08:23:09.060Z,195.93
2023-01-10T08:25:37.939Z,199.40
2023-01-10T08:28:06.803Z,202.97
2023-01-10T08:30:33.846Z,200.30
2023-01-10T08:33:06.051Z,198.13
2023-01-10T08:35:42.263Z,198.93
2023-01-10T08:38:11.421Z,200.50
2023-01-10T08:40:38.663Z,197.80
2023-01-10T08:43:10.536Z,198.07
2023-01-10T08:45:38.594Z,207.90
2023-01-10T08:48:07.614Z,197.33
2023-01-10T08:50:34.768Z,202.30
2023-01-10T08:53:02.273Z,200.70
2023-01-10T08:55:31.282Z,200.60
2023-01-10T08:58:02.246Z,199.53
2023-01-10T09:00:30.343Z,202.93
2023-01-10T09:02:57.962Z,200.63
2023-01-10T09:05:28.330Z,200.13
2023-01-10T09:08:01.712Z,199.53
2023-01-10T09:10:30.243Z,201.40
2023-01-10T09:13:01.826Z,197.50
2023-01-10T09:15:35.589Z,198.13
2023-01-10T09:18:05.439Z,201.47
2023-01-10T09:20:38.579Z,194.90
2023-01-10T09:23:12.633Z,202.63
2023-01-10T09:25:39.673Z,202.90
2023-01-10T09:28:07.149Z,206.27
2023-01-10T09:30:34.718Z,194.83
2023-01-10T09:33:02.757Z,202.03
2023-01-10T09:35:31.510Z,195.13
2023-01-10T09:38:01.477Z,201.60
2023-01-10T09:40:49.477Z,195.33
2023-01-10T09:43:44.203Z,197.87
2023-01-10T09:46:28.392Z,196.97
2023-01-10T09:49:14.805Z,198.57
2023-01-10T09:51:50.081Z,196.30
2023-01-10T09:54:32.370Z,202.90
2023-01-10T09:57:01.838Z,200.87
2023-01-10T09:59:38.319Z,200.80
2023-01-10T10:02:49.141Z,197.03
2023-01-10T10:05:28.583Z,194.63
2023-01-10T10:08:05.008Z,195.33
2023-01-10T10:10:40.986Z,202.83
2023-01-10T10:13:27.438Z,202.03
2023-01-10T10:16:29.947Z,201.47
2023-01-10T10:19:21.751Z,191.90
2023-01-10T10:22:31.078Z,201.60
2023-01-10T10:24:58.137Z,206.47
2023-01-10T10:28:18.351Z,209.33
2023-01-10T10:31:05.245Z,201.80
2023-01-10T10:33:57.328Z,201.37
2023-01-10T10:36:42.465Z,195.87
2023-01-10T10:39:18.043Z,208.27
2023-01-10T10:41:52.502Z,199.90
2023-01-10T10:44:33.037Z,197.23
2023-01-10T10:47:01.100Z,190.33
2023-01-10T10:49:42.791Z,200.67
2023-01-10T10:52:24.531Z,197.73
2023-01-10T10:54:53.374Z,203.63
2023-01-10T10:57:26.033Z,202.43
2023-01-10T10:59:53.355Z,203.83
2023-01-10T11:02:29.219Z,201.90
2023-01-10T11:05:14.396Z,203.53
2023-01-10T11:07:41.592Z,201.30
2023-01-10T11:10:22.111Z,197.13
2023-01-10T11:12:53.085Z,201.33
2023-01-10T11:15:41.634Z,202.40
2023-01-10T11:18:20.738Z,199.03
2023-01-10T11:21:15.125Z,204.03
2023-01-10T11:23:52.759Z,197.87
2023-01-10T11:26:34.701Z,201.20
2023-01-10T11:29:32.347Z,201.33
2023-01-10T11:32:09.530Z,195.20
2023-01-10T11:34:37.573Z,209.93
2023-01-10T11:37:25.140Z,196.37
2023-01-10T11:40:24.205Z,191.67
2023-01-10T11:42:57.656Z,195.83
2023-01-10T11:45:37.036Z,193.50
2023-01-10T11:48:50.338Z,196.27
2023-01-10T11:51:28.748Z,200.33
2023-01-10T11:54:01.328Z,193.83
2023-01-10T11:56:35.737Z,195.60
2023-01-10T11:59:13.140Z,195.93
2023-01-10T12:01:49.080Z,196.33
2023-01-10T12:04:20.891Z,191.60
2023-01-10T12:06:57.818Z,197.50
2023-01-10T12:09:44.481Z,191.70
2023-01-10T12:12:23.866Z,198.07
2023-01-10T12:14:52.971Z,196.33
2023-01-10T12:17:34.194Z,197.87
2023-01-10T12:20:04.569Z,197.20
2023-01-10T12:22:44.170Z,199.17
2023-01-10T12:25:22.951Z,197.63
2023-01-10T12:27:50.567Z,200.83
2023-01-10T12:30:43.408Z,203.77
2023-01-10T12:33:16.671Z,198.37
2023-01-10T12:36:00.178Z,198.60
2023-01-10T12:38:59.226Z,201.10
2023-01-10T12:42:05.754Z,201.40
2023-01-10T12:44:43.333Z,205.43
2023-01-10T12:48:01.258Z,197.77
2023-01-10T12:50:41.919Z,199.70
2023-01-10T12:53:29.340Z,196.97
2023-01-10T12:56:04.336Z,193.17
2023-01-10T12:58:49.218Z,200.27
2023-01-10T13:01:24.886Z,199.23
2023-01-10T13:04:04.490Z,195.23
2023-01-10T13:06:40.010Z,193.03
2023-01-10T13:09:29.379Z,194.20
2023-01-10T13:12:47.359Z,204.03
2023-01-10T13:15:28.669Z,189.67
2023-01-10T13:18:16.440Z,197.17
2023-01-10T13:20:44.168Z,199.07
2023-01-10T13:23:30.523Z,200.07
2023-01-10T13:26:05.391Z,197.60
2023-01-10T13:28:34.986Z,200.03
2023-01-10T13:31:07.264Z,200.47
2023-01-10T13:33:46.797Z,198.40
2023-01-10T13:36:25.994Z,195.43
2023-01-10T13:38:58.276Z,198.77
2023-01-10T13:42:16.031Z,200.67
2023-01-10T13:45:01.408Z,197.37
2023-01-10T13:47:40.432Z,194.80
2023-01-10T13:50:22.845Z,200.53
2023-01-10T13:53:18.872Z,197.37
2023-01-10T13:55:53.704Z,198.23
2023-01-10T13:58:43.695Z,199.13
2023-01-10T14:01:47.315Z,190.13
2023-01-10T14:04:58.976Z,199.77
2023-01-10T14:07:31.542Z,203.07
2023-01-10T14:10:05.047Z,193.50
2023-01-10T14:12:40.428Z,204.47
2023-01-10T14:15:28.588Z,199.93
2023-01-10T14:18:25.077Z,195.00
2023-01-10T14:21:03.051Z,204.57
2023-01-10T14:23:38.326Z,207.67
2023-01-10T14:26:05.727Z,196.93
2023-01-10T14:28:35.864Z,198.97
2023-01-10T14:31:15.584Z,196.10
2023-01-10T14:33:44.564Z,196.30
2023-01-10T14:36:23.854Z,207.50
2023-01-10T14:38:57.268Z,206.83
2023-01-10T14:41:38.819Z,197.53
2023-01-10T14:44:31.673Z,203.13
2023-01-10T14:47:04.527Z,203.00
2023-01-10T14:49:37.413Z,194.20
2023-01-10T14:52:17.109Z,200.53
2023-01-10T14:54:44.262Z,188.00
2023-01-10T14:57:24.702Z,195.47
2023-01-10T15:00:08.665Z,195.07
2023-01-10T15:02:37.393Z,189.40
2023-01-10T15:05:29.472Z,193.33
2023-01-10T15:08:28.483Z,202.73
2023-01-10T15:11:02.213Z,194.70
2023-01-10T15:13:31.624Z,199.23
2023-01-10T15:15:59.781Z,198.40
2023-01-10T15:18:43.992Z,201.27
2023-01-10T15:21:16.282Z,201.13
2023-01-10T15:23:46.561Z,198.37
2023-01-10T15:26:25.611Z,199.27
2023-01-10T15:29:23.505Z,194.47
2023-01-10T15:31:52.434Z,196.57
2023-01-10T15:34:23.095Z,188.87
2023-01-10T15:36:54.728Z,197.97
2023-01-10T15:39:33.190Z,196.97
2023-01-10T15:42:10.171Z,201.40
2023-01-10T15:44:39.869Z,197.90
2023-01-10T15:47:41.550Z,196.90
2023-01-10T15:50:40.468Z,199.10
2023-01-10T15:53:11.951Z,199.50
2023-01-10T15:55:45.042Z,196.73
2023-01-10T15:58:28.494Z,201.90
2023-01-10T16:00:58.060Z,205.93
2023-01-10T16:03:33.677Z,195.70
2023-01-10T16:06:02.287Z,201.53
2023-01-10T16:08:34.791Z,201.17
2023-01-10T16:11:16.621Z,200.37
2023-01-10T16:13:43.680Z,199.97
2023-01-10T16:16:18.874Z,204.43
2023-01-10T16:18:45.961Z,206.50
2023-01-10T16:21:14.433Z,204.27
2023-01-10T16:23:46.117Z,201.23
2023-01-10T16:26:14.787Z,200.43
2023-01-10T16:28:42.049Z,193.47
2023-01-10T16:31:14.580Z,200.27
2023-01-10T16:33:42.179Z,194.17
2023-01-10T16:36:19.011Z,204.77
2023-01-10T16:38:47.263Z,200.33
2023-01-10T16:41:34.006Z,202.20
2023-01-10T16:44:01.716Z,198.97
2023-01-10T16:46:29.301Z,202.07
2023-01-10T16:48:56.447Z,203.30
2023-01-10T16:51:30.343Z,198.97
2023-01-10T16:53:57.400Z,190.47
2023-01-10T16:56:27.381Z,195.77
2023-01-10T16:58:55.604Z,194.90
2023-01-10T17:01:31.261Z,192.00
2023-01-10T17:03:58.775Z,199.47
2023-01-10T17:06:25.871Z,199.60
2023-01-10T17:08:52.870Z,200.53
2023-01-10T17:11:40.900Z,206.33
2023-01-10T17:14:13.684Z,201.93
2023-01-10T17:16:40.844Z,202.13
2023-01-10T17:19:08.577Z,193.53
2023-01-10T17:21:35.721Z,199.23
2023-01-10T17:24:02.759Z,194.37
2023-01-10T17:26:29.791Z,195.57
2023-01-10T17:28:56.882Z,198.10
2023-01-10T17:31:23.968Z,195.80
2023-01-10T17:33:51.148Z,194.37
2023-01-10T17:36:19.495Z,198.20
2023-01-10T17:38:46.865Z,196.27
2023-01-10T17:41:14.399Z,198.77
2023-01-10T17:43:41.454Z,205.90
2023-01-10T17:46:08.624Z,198.70
2023-01-10T17:48:36.100Z,194.57
2023-01-10T17:51:04.133Z,199.73
2023-01-10T17:53:31.470Z,214.60
2023-01-10T17:56:00.198Z,198.10
2023-01-10T17:58:28.700Z,213.17
2023-01-10T18:00:55.989Z,215.63
2023-01-10T18:03:23.402Z,206.17
2023-01-10T18:05:55.992Z,197.67
2023-01-10T18:08:24.092Z,199.63
2023-01-10T18:10:51.926Z,200.63
2023-01-10T18:13:20.943Z,200.03
2023-01-10T18:15:49.710Z,206.97
2023-01-10T18:18:17.191Z,206.53
2023-01-10T18:20:44.911Z,215.83
2023-01-10T18:23:22.830Z,215.33
2023-01-10T18:26:11.029Z,213.03
2023-01-10T18:28:42.767Z,224.43
2023-01-10T18:31:14.243Z,238.23
2023-01-10T18:33:41.613Z,222.80
2023-01-10T18:36:15.126Z,208.07
2023-01-10T18:38:42.551Z,210.87
2023-01-10T18:41:09.812Z,198.13
2023-01-10T18:43:36.922Z,201.30
2023-01-10T18:46:09.244Z,217.30
2023-01-10T18:48:36.987Z,215.37
2023-01-10T18:51:05.375Z,210.97
2023-01-10T18:53:33.304Z,218.33
2023-01-10T18:56:04.571Z,224.83
2023-01-10T18:58:40.876Z,211.33
2023-01-10T19:01:15.143Z,212.60
2023-01-10T19:03:43.162Z,212.33
2023-01-10T19:06:14.547Z,207.60
2023-01-10T19:08:42.633Z,216.60
2023-01-10T19:11:14.806Z,204.70
2023-01-10T19:13:46.850Z,202.53
2023-01-10T19:16:17.745Z,210.20
2023-01-10T19:18:53.574Z,203.40
2023-01-10T19:21:21.592Z,213.80
2023-01-10T19:23:56.683Z,226.73
2023-01-10T19:26:24.904Z,217.83
2023-01-10T19:28:53.857Z,211.03
2023-01-10T19:31:25.190Z,215.00
2023-01-10T19:33:52.622Z,220.10
2023-01-10T19:36:22.941Z,270.83
2023-01-10T19:38:58.119Z,272.03
2023-01-10T19:41:27.704Z,258.17
2023-01-10T19:43:57.472Z,242.83
2023-01-10T19:46:24.889Z,228.17
2023-01-10T19:48:52.227Z,231.93
2023-01-10T19:51:19.283Z,224.20
2023-01-10T19:53:46.731Z,220.97
2023-01-10T19:56:23.073Z,226.27
2023-01-10T19:58:50.923Z,219.27
2023-01-10T20:01:24.164Z,213.50
2023-01-10T20:03:52.075Z,222.70
2023-01-10T20:06:22.714Z,221.97
2023-01-10T20:08:50.690Z,235.53
2023-01-10T20:11:19.221Z,230.60
2023-01-10T20:13:48.277Z,219.63
2023-01-10T20:16:23.780Z,232.13
2023-01-10T20:18:52.274Z,223.53
2023-01-10T20:21:20.425Z,236.00
2023-01-10T20:23:47.780Z,236.93
2023-01-10T20:26:22.541Z,238.73
2023-01-10T20:28:50.753Z,240.83
2023-01-10T20:31:22.093Z,218.27
2023-01-10T20:33:49.530Z,206.67
2023-01-10T20:36:21.660Z,201.40
2023-01-10T20:38:49.369Z,206.90
2023-01-10T20:41:28.815Z,197.43
2023-01-10T20:43:57.412Z,187.33
2023-01-10T20:46:31.908Z,200.10
2023-01-10T20:49:02.204Z,190.83
2023-01-10T20:51:35.163Z,193.50
2023-01-10T20:54:04.205Z,201.87
2023-01-10T20:56:32.577Z,194.60
2023-01-10T20:58:59.757Z,198.17
2023-01-10T21:01:34.594Z,200.50
2023-01-10T21:04:05.222Z,199.23
2023-01-10T21:06:33.248Z,192.13
2023-01-10T21:09:00.617Z,190.57
2023-01-10T21:11:27.883Z,194.40
2023-01-10T21:13:55.052Z,201.77
2023-01-10T21:16:22.579Z,210.93
2023-01-10T21:18:50.707Z,205.50
2023-01-10T21:21:22.518Z,210.30
2023-01-10T21:23:50.029Z,205.60
2023-01-10T21:26:17.448Z,196.67
2023-01-10T21:28:49.128Z,204.37
2023-01-10T21:31:19.372Z,198.80
2023-01-10T21:33:47.059Z,206.33
2023-01-10T21:36:14.272Z,215.03
2023-01-10T21:38:41.839Z,206.23
2023-01-10T21:41:35.437Z,199.13
2023-01-10T21:44:04.972Z,219.83
2023-01-10T21:46:32.618Z,209.30
2023-01-10T21:49:02.009Z,201.57
2023-01-10T21:51:29.502Z,197.50
2023-01-10T21:53:56.586Z,200.60
2023-01-10T21:56:23.652Z,188.77
2023-01-10T21:58:50.687Z,193.77
2023-01-10T22:01:17.755Z,194.10
2023-01-10T22:03:46.025Z,191.90
2023-01-10T22:06:13.878Z,198.03
2023-01-10T22:08:41.489Z,197.83
2023-01-10T22:11:10.766Z,198.13
2023-01-10T22:13:38.886Z,209.27
2023-01-10T22:16:07.057Z,243.07
2023-01-10T22:18:34.249Z,216.17
2023-01-10T22:21:01.311Z,223.30
2023-01-10T22:23:30.777Z,207.33
2023-01-10T22:26:09.540Z,213.97
2023-01-10T22:28:36.607Z,209.60
2023-01-10T22:31:04.706Z,209.03
2023-01-10T22:33:35.539Z,226.93
2023-01-10T22:36:07.356Z,214.20
2023-01-10T22:38:34.583Z,209.40
2023-01-10T22:41:10.665Z,201.83
2023-01-10T22:43:37.931Z,201.23
2023-01-10T22:46:06.295Z,202.73
2023-01-10T22:48:35.593Z,206.83
2023-01-10T22:51:02.747Z,200.40
2023-01-10T22:53:30.057Z,205.17
2023-01-10T22:56:04.548Z,197.20
2023-01-10T22:58:31.759Z,207.97
2023-01-10T23:03:43.827Z,212.37
2023-01-10T23:06:12.260Z,217.60
2023-01-10T23:08:40.932Z,223.47
2023-01-10T23:11:10.315Z,218.33
2023-01-10T23:13:37.525Z,206.07
2023-01-10T23:16:08.610Z,214.50
2023-01-10T23:18:36.355Z,219.10
2023-01-10T23:21:04.332Z,206.57
2023-01-10T23:23:31.812Z,212.30
2023-01-10T23:26:09.002Z,215.60
2023-01-10T23:28:48.345Z,214.90
2023-01-10T23:31:19.261Z,207.97
2023-01-10T23:33:47.169Z,204.87
2023-01-10T23:36:15.153Z,211.63
2023-01-10T23:38:42.141Z,211.13
2023-01-10T23:41:09.170Z,212.33
2023-01-10T23:43:36.337Z,217.27
2023-01-10T23:46:04.552Z,208.17
2023-01-10T23:48:31.675Z,213.67
2023-01-10T23:50:58.867Z,208.03
2023-01-10T23:53:26.914Z,205.40
2023-01-10T23:55:54.289Z,210.73
2023-01-10T23:58:21.394Z,204.33
